Arnoldsville, GA

9:14 PM EST on November 26, 2014 (GMT -0500)
Wyndfield | Change Station
CLOSE
Current Station
Personal Weather Station
Location: Athens-Clarke County, GA
Elevation: 647 ft
Nearby Weather Stations

Elev 647 ft 33.91 °N, 83.30 °W | Updated 19 seconds ago

Partly Cloudy
Partly Cloudy
38.2 °F
Feels Like 38 °F
N
0.0
Wind Variable Wind from SSW
Gusts 0.0 mph

Today
High -- | Low -- °F
--% Chance of Precip.
Yesterday
High -- | Low -- °F
Precip. -- in
7:15 AM 5:25 PM
Waxing Crescent, 24% visible
Pressure 30.09 in
Visibility 10.0 miles
Clouds Clear
Windchill 38 °F
Dew Point 30 °F
Humidity 73%
Rainfall 0.23 in
Snow Depth Not available.
UV 0 out of 12
Pollen .30 out of 12
Air Quality Not available.
Flu Activity Not available.
METAR KAHN 270151Z AUTO 00000KT 10SM CLR 05/M02 A3007 RMK AO2 SLP187 T00501017

More Conditions Fewer Conditions

Pressure 30.09 in
Visibility 10.0 miles
Clouds Clear
Windchill 38 °F
Dew Point 30 °F
Humidity 73%
Rainfall 0.23 in
Snow Depth Not available.
UV 0 out of 12
Pollen .30 out of 12
Air Quality Not available.
Flu Activity Not available.
METAR KAHN 270151Z AUTO 00000KT 10SM CLR 05/M02 A3007 RMK AO2 SLP187 T00501017

More Conditions Fewer Conditions

10-Day Weather Forecast

Almanac

Astronomy

Nov. 26, 2014 Rise Set
Actual Time
Civil Twilight
Nautical Twilight
Astronomical Twilight
Moon
Length of Visible Light
Length of Day
Tomorrow will be .
, % of the Moon is Illuminated

Today's Extremes

State Highs State Lows

Community

WunderPhotos

Upload Photos

1,773,943 photos uploaded!

WunderBlogs® & News

Nearby

Air Quality

  Air Quality AQ Index Pollutant
Not available.

Snow Depth

Station Depth Elevation

Earthquake Activity

City Distance Mag. Time & Date
Minimum magnitude displayed is 2.5.

Coastal Water Temperatures

Place Temperature

Nearby Weather Stations